createdAt,value
2018-11-06T00:01:50.665Z,54.06
2018-11-06T00:04:20.253Z,53.95
2018-11-06T00:06:51.613Z,54.28
2018-11-06T00:09:21.309Z,54.47
2018-11-06T00:11:50.886Z,54.28
2018-11-06T00:14:21.250Z,53.74
2018-11-06T00:16:51.489Z,53.37
2018-11-06T00:19:21.059Z,53.36
2018-11-06T00:21:50.652Z,53.66
2018-11-06T00:24:20.093Z,54.04
2018-11-06T00:26:51.829Z,53.83
2018-11-06T00:29:21.720Z,53.59
2018-11-06T00:31:51.236Z,53.76
2018-11-06T00:34:22.639Z,53.35
2018-11-06T00:36:53.079Z,53.55
2018-11-06T00:39:22.569Z,53.80
2018-11-06T00:41:52.040Z,53.41
2018-11-06T00:44:22.394Z,53.11
2018-11-06T00:46:51.898Z,52.64
2018-11-06T00:49:21.350Z,52.83
2018-11-06T00:51:53.090Z,52.52
2018-11-06T00:54:22.664Z,52.36
2018-11-06T00:56:52.076Z,52.10
2018-11-06T00:59:22.661Z,51.71
2018-11-06T01:01:53.472Z,51.17
2018-11-06T01:04:22.962Z,51.15
2018-11-06T01:06:52.928Z,51.08
2018-11-06T01:09:23.206Z,50.47
2018-11-06T01:11:53.367Z,50.92
2018-11-06T01:14:22.864Z,50.80
2018-11-06T01:16:52.335Z,50.98
2018-11-06T01:19:21.756Z,51.17
2018-11-06T01:21:51.223Z,50.60
2018-11-06T01:24:20.662Z,50.33
2018-11-06T01:26:50.192Z,50.34
2018-11-06T01:29:20.441Z,50.78
2018-11-06T01:31:49.989Z,50.70
2018-11-06T01:34:19.475Z,51.37
2018-11-06T01:36:48.885Z,51.16
2018-11-06T01:39:19.081Z,51.25
2018-11-06T01:41:48.496Z,51.38
2018-11-06T01:44:18.514Z,51.70
2018-11-06T01:46:49.061Z,52.09
2018-11-06T01:49:18.463Z,52.48
2018-11-06T01:51:48.742Z,52.21
2018-11-06T01:54:18.188Z,52.67
2018-11-06T01:56:47.605Z,52.65
2018-11-06T01:59:17.848Z,53.25
2018-11-06T02:01:48.160Z,52.99
2018-11-06T02:04:17.589Z,52.60
2018-11-06T02:06:48.663Z,53.23
2018-11-06T02:09:18.084Z,52.91
2018-11-06T02:11:47.842Z,52.22
2018-11-06T02:14:18.044Z,52.36
2018-11-06T02:16:47.527Z,52.29
2018-11-06T02:19:16.979Z,52.61
2018-11-06T02:21:47.192Z,51.77
2018-11-06T02:24:16.748Z,51.85
2018-11-06T02:26:46.201Z,52.16
2018-11-06T02:29:17.464Z,51.90
2018-11-06T02:31:51.549Z,52.06
2018-11-06T02:34:21.942Z,51.38
2018-11-06T02:36:59.378Z,51.86
2018-11-06T02:39:35.553Z,52.37
2018-11-06T02:42:05.406Z,52.23
2018-11-06T02:44:38.182Z,51.86
2018-11-06T02:47:08.748Z,52.26
2018-11-06T02:49:38.657Z,52.11
2018-11-06T02:52:08.701Z,52.46
2018-11-06T02:54:38.117Z,52.82
2018-11-06T02:57:08.545Z,52.87
2018-11-06T02:59:38.030Z,52.69
2018-11-06T03:02:11.463Z,52.99
2018-11-06T03:04:44.685Z,53.63
2018-11-06T03:07:15.942Z,53.50
2018-11-06T03:09:45.394Z,53.17
2018-11-06T03:12:15.961Z,53.20
2018-11-06T03:14:46.835Z,53.34
2018-11-06T03:17:17.081Z,53.58
2018-11-06T03:19:47.133Z,52.56
2018-11-06T03:22:16.580Z,53.26
2018-11-06T03:24:46.985Z,53.68
2018-11-06T03:27:17.862Z,53.25
2018-11-06T03:29:47.741Z,53.58
2018-11-06T03:32:17.586Z,53.65
2018-11-06T03:34:47.062Z,53.94
2018-11-06T03:37:19.439Z,53.15
2018-11-06T03:39:51.477Z,53.53
2018-11-06T03:42:21.096Z,53.72
2018-11-06T03:44:50.929Z,53.81
2018-11-06T03:47:21.736Z,53.46
2018-11-06T03:49:51.244Z,53.93
2018-11-06T03:52:20.713Z,53.56
2018-11-06T03:54:50.138Z,53.50
2018-11-06T03:57:20.911Z,53.52
2018-11-06T03:59:51.325Z,54.11
2018-11-06T04:02:20.760Z,53.54
2018-11-06T04:04:50.175Z,53.61
2018-11-06T04:07:19.569Z,53.36
2018-11-06T04:09:48.973Z,53.22
2018-11-06T04:12:18.423Z,53.53
2018-11-06T04:14:51.469Z,53.36
2018-11-06T04:17:20.847Z,52.95
2018-11-06T04:19:50.270Z,53.54
2018-11-06T04:22:19.670Z,53.12
2018-11-06T04:24:49.647Z,53.56
2018-11-06T04:27:20.312Z,53.58
2018-11-06T04:29:49.932Z,54.43
2018-11-06T04:32:19.633Z,54.71
2018-11-06T04:34:49.072Z,54.14
2018-11-06T04:37:18.457Z,55.12
2018-11-06T04:39:48.259Z,54.88
2018-11-06T04:42:17.709Z,54.92
2018-11-06T04:44:47.120Z,55.01
2018-11-06T04:47:16.521Z,54.44
2018-11-06T04:49:46.341Z,54.59
2018-11-06T04:52:16.146Z,54.46
2018-11-06T04:54:45.893Z,55.73
2018-11-06T04:57:15.309Z,55.10
2018-11-06T04:59:44.720Z,54.57
2018-11-06T05:02:14.239Z,54.35
2018-11-06T05:04:45.923Z,54.84
2018-11-06T05:07:15.303Z,55.06
2018-11-06T05:09:45.735Z,54.82
2018-11-06T05:12:15.569Z,54.96
2018-11-06T05:14:45.453Z,55.47
2018-11-06T05:17:14.845Z,54.90
2018-11-06T05:19:45.508Z,54.47
2018-11-06T05:22:14.900Z,54.48
2018-11-06T05:24:45.587Z,54.71
2018-11-06T05:27:15.076Z,55.75
2018-11-06T05:29:44.457Z,55.70
2018-11-06T05:32:13.904Z,56.01
2018-11-06T05:34:43.586Z,54.92
2018-11-06T05:37:14.337Z,55.71
2018-11-06T05:39:54.712Z,56.13
2018-11-06T05:42:24.962Z,55.66
2018-11-06T05:44:54.385Z,55.94
2018-11-06T05:47:27.596Z,55.96
2018-11-06T05:49:57.001Z,55.97
2018-11-06T05:52:27.170Z,54.76
2018-11-06T05:54:56.916Z,54.32
2018-11-06T05:57:26.280Z,54.13
2018-11-06T05:59:56.792Z,54.51
2018-11-06T06:02:26.519Z,54.95
2018-11-06T06:04:55.893Z,55.42
2018-11-06T06:07:25.277Z,54.58
2018-11-06T06:09:56.493Z,54.91
2018-11-06T06:12:25.888Z,55.48
2018-11-06T06:14:55.348Z,55.66
2018-11-06T06:17:26.510Z,55.57
2018-11-06T06:19:57.825Z,54.95
2018-11-06T06:22:27.607Z,54.58
2018-11-06T06:24:57.222Z,55.01
2018-11-06T06:27:27.676Z,54.87
2018-11-06T06:29:57.442Z,53.94
2018-11-06T06:32:26.876Z,53.86
2018-11-06T06:34:56.426Z,54.04
2018-11-06T06:37:26.051Z,54.84
2018-11-06T06:39:55.503Z,55.07
2018-11-06T06:42:25.045Z,54.65
2018-11-06T06:44:54.725Z,53.97
2018-11-06T06:47:24.332Z,53.80
2018-11-06T06:49:53.897Z,54.54
2018-11-06T06:52:23.615Z,54.12
2018-11-06T06:54:53.120Z,54.94
2018-11-06T06:57:23.577Z,54.43
2018-11-06T06:59:53.137Z,54.44
2018-11-06T07:02:22.707Z,54.26
2018-11-06T07:04:53.504Z,54.89
2018-11-06T07:07:23.996Z,54.41
2018-11-06T07:09:53.438Z,53.62
2018-11-06T07:12:24.865Z,53.52
2018-11-06T07:14:55.424Z,53.78
2018-11-06T07:17:25.439Z,53.75
2018-11-06T07:19:58.587Z,54.18
2018-11-06T07:22:28.637Z,53.02
2018-11-06T07:24:58.385Z,52.69
2018-11-06T07:27:30.679Z,52.41
2018-11-06T07:30:01.952Z,52.71
2018-11-06T07:32:31.772Z,51.55
2018-11-06T07:35:02.682Z,51.29
2018-11-06T07:37:32.287Z,51.43
2018-11-06T07:40:03.281Z,51.20
2018-11-06T07:42:33.518Z,51.21
2018-11-06T07:45:03.100Z,50.18
2018-11-06T07:50:59.847Z,51.41
2018-11-06T07:53:30.481Z,51.09
2018-11-06T07:55:59.981Z,50.86
2018-11-06T07:58:29.567Z,50.48
2018-11-06T08:01:00.088Z,51.10
2018-11-06T08:03:30.274Z,50.48
2018-11-06T08:06:00.654Z,51.05
2018-11-06T08:08:32.429Z,51.47
2018-11-06T08:11:03.183Z,51.66
2018-11-06T08:13:33.303Z,52.13
2018-11-06T08:16:04.312Z,52.42
2018-11-06T08:18:38.120Z,52.58
2018-11-06T08:21:11.138Z,52.23
2018-11-06T08:23:41.413Z,51.78
2018-11-06T08:26:14.360Z,51.95
2018-11-06T08:28:44.366Z,51.31
2018-11-06T08:31:14.809Z,50.68
2018-11-06T08:33:44.684Z,50.35
2018-11-06T08:36:15.020Z,50.86
2018-11-06T08:38:47.077Z,50.35
2018-11-06T08:41:18.530Z,49.32
2018-11-06T08:43:48.201Z,50.51
2018-11-06T08:46:20.592Z,50.22
2018-11-06T08:48:50.347Z,49.55
2018-11-06T08:51:22.382Z,50.42
2018-11-06T08:53:52.716Z,50.19
2018-11-06T08:56:23.103Z,50.39
2018-11-06T08:58:53.026Z,49.51
2018-11-06T09:01:24.214Z,49.46
2018-11-06T09:03:58.237Z,50.00
2018-11-06T09:06:28.753Z,48.30
2018-11-06T09:08:59.098Z,48.62
2018-11-06T09:11:30.072Z,48.26
2018-11-06T09:13:59.874Z,47.52
2018-11-06T09:16:29.341Z,47.28
2018-11-06T09:18:59.592Z,47.36
2018-11-06T09:21:29.082Z,46.81
2018-11-06T09:23:59.378Z,47.22
2018-11-06T09:26:30.442Z,47.30
2018-11-06T09:29:01.806Z,47.92
2018-11-06T09:31:31.273Z,47.65
2018-11-06T09:34:01.810Z,48.08
2018-11-06T09:36:32.342Z,46.94
2018-11-06T09:39:02.653Z,46.74
2018-11-06T09:41:33.140Z,47.00
2018-11-06T09:44:03.790Z,47.24
2018-11-06T09:46:33.249Z,47.07
2018-11-06T09:49:03.535Z,47.18
2018-11-06T09:51:33.422Z,47.07
2018-11-06T09:54:02.962Z,46.28
2018-11-06T09:56:32.851Z,46.31
2018-11-06T09:59:02.766Z,46.28
2018-11-06T10:01:33.849Z,45.89
2018-11-06T10:04:06.326Z,45.50
2018-11-06T10:06:45.523Z,45.23
2018-11-06T10:09:17.211Z,45.48
2018-11-06T10:11:46.840Z,46.22
2018-11-06T10:14:16.391Z,46.05
2018-11-06T10:16:47.433Z,45.97
2018-11-06T10:19:18.017Z,45.43
2018-11-06T10:21:48.942Z,45.47
2018-11-06T10:24:21.521Z,45.89
2018-11-06T10:26:59.445Z,45.81
2018-11-06T10:29:34.242Z,46.05
2018-11-06T10:32:06.963Z,45.38
2018-11-06T10:34:37.096Z,44.94
2018-11-06T10:37:07.241Z,45.25
2018-11-06T10:39:39.046Z,44.70
2018-11-06T10:42:09.463Z,44.78
2018-11-06T10:44:40.251Z,43.76
2018-11-06T10:47:11.297Z,44.05
2018-11-06T10:49:44.616Z,44.18
2018-11-06T10:52:16.322Z,43.58
2018-11-06T10:54:46.521Z,43.43
2018-11-06T10:57:20.335Z,43.28
2018-11-06T10:59:51.093Z,42.96
2018-11-06T11:02:25.907Z,42.46
2018-11-06T11:04:56.534Z,42.48
2018-11-06T11:07:27.770Z,41.31
2018-11-06T11:09:58.220Z,40.89
2018-11-06T11:12:29.693Z,39.08
2018-11-06T11:15:00.985Z,39.18
2018-11-06T11:17:31.229Z,38.27
2018-11-06T11:20:02.120Z,39.71
2018-11-06T11:22:31.657Z,38.28
2018-11-06T11:25:03.331Z,38.62
2018-11-06T11:27:33.016Z,38.37
2018-11-06T11:30:04.566Z,38.56
2018-11-06T11:32:35.507Z,38.44
2018-11-06T11:35:05.681Z,37.82
2018-11-06T11:37:35.683Z,38.46
2018-11-06T11:40:06.754Z,38.26
2018-11-06T11:45:06.000Z,38.29
2018-11-06T11:47:36.018Z,37.64
2018-11-06T11:50:06.646Z,38.10
2018-11-06T11:52:36.101Z,37.45
2018-11-06T11:55:05.987Z,37.47
2018-11-06T11:57:36.169Z,37.48
2018-11-06T12:00:06.710Z,37.74
2018-11-06T12:02:36.343Z,37.55
2018-11-06T12:05:09.304Z,37.60
2018-11-06T12:07:38.835Z,37.88
2018-11-06T12:10:12.472Z,37.65
2018-11-06T12:12:43.791Z,37.84
2018-11-06T12:15:18.239Z,37.75
2018-11-06T12:17:49.155Z,37.37
2018-11-06T12:20:19.477Z,37.39
2018-11-06T12:22:49.683Z,37.77
2018-11-06T12:25:21.540Z,37.57
2018-11-06T12:27:51.140Z,37.28
2018-11-06T12:30:23.509Z,37.23
2018-11-06T12:32:54.274Z,37.78
2018-11-06T12:35:25.225Z,37.83
2018-11-06T12:37:55.486Z,37.35
2018-11-06T12:40:25.288Z,36.84
2018-11-06T12:42:55.576Z,36.44
2018-11-06T12:45:25.397Z,36.91
2018-11-06T12:47:55.129Z,36.62
2018-11-06T12:50:24.585Z,36.87
2018-11-06T12:52:54.751Z,37.16
2018-11-06T12:55:24.474Z,37.07
2018-11-06T12:57:54.780Z,37.20
2018-11-06T13:00:24.272Z,37.76
2018-11-06T13:02:56.782Z,36.81
2018-11-06T13:05:31.003Z,36.64
2018-11-06T13:08:11.607Z,37.36
2018-11-06T13:10:42.838Z,36.78
2018-11-06T13:13:12.616Z,37.21
2018-11-06T13:15:42.041Z,37.07
2018-11-06T13:18:11.817Z,36.71
2018-11-06T13:20:44.143Z,37.51
2018-11-06T13:23:13.886Z,36.01
2018-11-06T13:25:43.739Z,36.10
2018-11-06T13:28:15.195Z,37.03
2018-11-06T13:30:44.732Z,36.20
2018-11-06T13:33:16.036Z,36.74
2018-11-06T13:35:46.720Z,36.80
2018-11-06T13:38:18.604Z,36.65
2018-11-06T13:40:52.892Z,36.41
2018-11-06T13:43:23.620Z,36.78
2018-11-06T13:45:58.790Z,37.01
2018-11-06T13:48:30.425Z,36.96
2018-11-06T13:51:01.161Z,36.17
2018-11-06T13:53:32.671Z,36.04
2018-11-06T13:56:03.608Z,36.61
2018-11-06T13:58:33.041Z,36.04
2018-11-06T14:01:02.503Z,35.99
2018-11-06T14:03:37.450Z,35.57
2018-11-06T14:06:07.895Z,35.62
2018-11-06T14:08:37.319Z,35.98
2018-11-06T14:11:06.696Z,35.87
2018-11-06T14:13:41.181Z,35.76
2018-11-06T14:16:12.337Z,35.79
2018-11-06T14:18:44.392Z,36.15
2018-11-06T14:21:25.765Z,37.10
2018-11-06T14:23:56.368Z,36.35
2018-11-06T14:26:27.554Z,36.93
2018-11-06T14:28:58.564Z,37.44
2018-11-06T14:31:28.634Z,37.28
2018-11-06T14:33:58.030Z,37.89
2018-11-06T14:36:30.532Z,38.15
2018-11-06T14:39:01.760Z,37.87
2018-11-06T14:41:32.848Z,38.68
2018-11-06T14:44:02.364Z,38.54
2018-11-06T14:46:32.396Z,38.94
2018-11-06T14:49:03.284Z,38.33
2018-11-06T14:51:34.394Z,38.55
2018-11-06T14:54:03.809Z,38.31
2018-11-06T14:56:36.106Z,38.51
2018-11-06T14:59:05.716Z,38.91
2018-11-06T15:01:35.786Z,38.89
2018-11-06T15:04:07.678Z,39.46
2018-11-06T15:06:38.049Z,39.95
2018-11-06T15:09:09.584Z,40.39
2018-11-06T15:11:40.227Z,40.43
2018-11-06T15:14:12.749Z,40.39
2018-11-06T15:16:42.195Z,40.77
2018-11-06T15:19:11.734Z,40.97
2018-11-06T15:21:41.229Z,40.67
2018-11-06T15:24:11.250Z,41.35
2018-11-06T15:26:42.064Z,41.56
2018-11-06T15:29:13.577Z,41.61
2018-11-06T15:31:43.642Z,42.31
2018-11-06T15:34:13.785Z,41.68
2018-11-06T15:36:43.214Z,41.83
2018-11-06T15:39:13.344Z,42.36
2018-11-06T15:41:43.542Z,42.92
2018-11-06T15:44:14.036Z,43.02
2018-11-06T15:46:43.580Z,42.04
2018-11-06T15:49:14.256Z,42.29
2018-11-06T15:51:44.232Z,43.08
2018-11-06T15:54:14.453Z,43.23
2018-11-06T15:56:45.934Z,42.90
2018-11-06T15:59:15.873Z,43.32
2018-11-06T16:01:47.148Z,43.50
2018-11-06T16:04:20.498Z,43.04
2018-11-06T16:06:49.992Z,43.02
2018-11-06T16:09:19.400Z,43.26
2018-11-06T16:11:51.333Z,43.46
2018-11-06T16:14:22.429Z,42.96
2018-11-06T16:16:52.786Z,42.18
2018-11-06T16:19:22.698Z,43.11
2018-11-06T16:21:52.627Z,42.98
2018-11-06T16:24:22.384Z,42.96
2018-11-06T16:26:52.784Z,42.50
2018-11-06T16:29:23.345Z,42.53
2018-11-06T16:31:54.905Z,42.59
2018-11-06T16:34:24.622Z,42.46
2018-11-06T16:36:54.057Z,42.49
2018-11-06T16:39:24.598Z,41.69
2018-11-06T16:41:53.986Z,42.21
2018-11-06T16:44:25.507Z,41.97
2018-11-06T16:46:55.809Z,41.46
2018-11-06T16:49:25.213Z,41.63
2018-11-06T16:52:18.623Z,41.17
2018-11-06T16:57:49.735Z,42.17
2018-11-06T17:00:26.129Z,42.72
2018-11-06T17:02:58.294Z,42.10
2018-11-06T17:05:28.361Z,43.07
2018-11-06T17:07:58.552Z,43.73
2018-11-06T17:10:28.864Z,43.39
2018-11-06T17:13:00.369Z,42.93
2018-11-06T17:15:31.526Z,43.01
2018-11-06T17:18:02.039Z,43.00
2018-11-06T17:20:32.021Z,43.54
2018-11-06T17:23:03.535Z,43.33
2018-11-06T17:25:33.346Z,43.87
2018-11-06T17:28:03.773Z,43.65
2018-11-06T17:30:34.233Z,43.70
2018-11-06T17:33:04.505Z,43.07
2018-11-06T17:35:35.715Z,43.47
2018-11-06T17:38:06.845Z,43.30
2018-11-06T17:40:37.400Z,43.25
2018-11-06T17:43:07.161Z,42.99
2018-11-06T17:45:39.273Z,43.96
2018-11-06T17:48:09.460Z,44.13
2018-11-06T17:50:38.957Z,44.97
2018-11-06T17:53:10.095Z,45.30
2018-11-06T17:55:40.700Z,46.13
2018-11-06T17:58:11.684Z,46.28
2018-11-06T18:00:42.285Z,46.23
2018-11-06T18:03:14.736Z,46.62
2018-11-06T18:05:48.194Z,47.50
2018-11-06T18:08:18.437Z,48.40
2018-11-06T18:10:50.789Z,48.44
2018-11-06T18:13:28.421Z,47.97
2018-11-06T18:15:59.057Z,48.90
2018-11-06T18:18:30.029Z,48.79
2018-11-06T18:20:59.529Z,49.02
2018-11-06T18:23:30.843Z,48.26
2018-11-06T18:26:01.672Z,48.93
2018-11-06T18:28:31.125Z,49.45
2018-11-06T18:31:04.202Z,49.82
2018-11-06T18:33:35.297Z,49.95
2018-11-06T18:36:04.810Z,51.32
2018-11-06T18:38:34.328Z,51.03
2018-11-06T18:41:11.228Z,50.86
2018-11-06T18:43:40.706Z,51.60
2018-11-06T18:46:10.222Z,51.89
2018-11-06T18:48:41.224Z,52.01
2018-11-06T18:51:14.550Z,52.45
2018-11-06T18:53:44.058Z,52.57
2018-11-06T18:56:14.114Z,52.50
2018-11-06T18:58:43.608Z,53.40
2018-11-06T19:01:14.344Z,52.90
2018-11-06T19:03:47.680Z,52.94
2018-11-06T19:06:17.658Z,51.87
2018-11-06T19:08:47.407Z,51.79
2018-11-06T19:11:18.841Z,52.13
2018-11-06T19:13:52.157Z,53.63
2018-11-06T19:16:24.412Z,53.99
2018-11-06T19:19:01.781Z,54.19
2018-11-06T19:21:32.682Z,54.47
2018-11-06T19:24:03.797Z,53.82
2018-11-06T19:26:34.478Z,54.37
2018-11-06T19:29:05.337Z,54.57
2018-11-06T19:31:35.766Z,54.90
2018-11-06T19:34:05.469Z,55.28
2018-11-06T19:36:36.350Z,54.33
2018-11-06T19:39:09.733Z,54.82
2018-11-06T19:41:39.937Z,54.10
2018-11-06T19:44:10.384Z,55.67
2018-11-06T19:46:41.475Z,55.65
2018-11-06T19:49:12.932Z,55.54
2018-11-06T19:51:42.857Z,56.77
2018-11-06T19:54:13.907Z,56.75
2018-11-06T19:56:51.538Z,56.06
2018-11-06T19:59:23.119Z,56.07
2018-11-06T20:01:55.424Z,55.08
2018-11-06T20:04:25.694Z,55.54
2018-11-06T20:06:57.285Z,55.48
2018-11-06T20:09:29.149Z,55.52
2018-11-06T20:12:02.332Z,56.20
2018-11-06T20:14:32.785Z,56.09
2018-11-06T20:17:03.134Z,55.97
2018-11-06T20:19:36.286Z,54.99
2018-11-06T20:22:13.401Z,55.34
2018-11-06T20:24:49.470Z,56.07
2018-11-06T20:27:25.443Z,55.90
2018-11-06T20:29:59.892Z,56.19
2018-11-06T20:32:34.357Z,56.11
2018-11-06T20:35:11.377Z,55.70
2018-11-06T20:37:46.291Z,54.56
2018-11-06T20:40:21.445Z,53.72
2018-11-06T20:42:54.128Z,53.77
2018-11-06T20:45:27.646Z,53.88
2018-11-06T20:48:00.197Z,54.23
2018-11-06T20:50:32.276Z,54.59
2018-11-06T20:53:03.057Z,53.39
2018-11-06T20:55:35.375Z,54.15
2018-11-06T20:58:06.055Z,53.95
2018-11-06T21:00:37.348Z,54.32
2018-11-06T21:03:09.698Z,53.55
2018-11-06T21:05:40.635Z,52.90
2018-11-06T21:08:11.595Z,52.72
2018-11-06T21:10:41.327Z,52.28
2018-11-06T21:13:11.783Z,51.63
2018-11-06T21:15:44.354Z,52.67
2018-11-06T21:18:14.612Z,52.20
2018-11-06T21:20:45.579Z,52.62
2018-11-06T21:23:22.996Z,53.33
2018-11-06T21:25:52.755Z,53.90
2018-11-06T21:28:23.357Z,54.42
2018-11-06T21:30:54.292Z,54.79
2018-11-06T21:33:25.853Z,55.10
2018-11-06T21:35:56.233Z,54.60
2018-11-06T21:38:30.860Z,55.35
2018-11-06T21:41:02.775Z,54.98
2018-11-06T21:43:37.373Z,55.14
2018-11-06T21:46:07.197Z,54.89
2018-11-06T21:48:37.505Z,55.89
2018-11-06T21:51:11.139Z,56.69
2018-11-06T21:53:41.208Z,55.97
2018-11-06T21:56:10.814Z,55.66
2018-11-06T21:58:48.460Z,55.84
2018-11-06T22:01:21.230Z,56.56
2018-11-06T22:03:55.847Z,55.42
2018-11-06T22:06:29.151Z,55.90
2018-11-06T22:08:59.334Z,56.56
2018-11-06T22:11:33.997Z,56.79
2018-11-06T22:14:05.253Z,56.70
2018-11-06T22:16:36.336Z,56.27
2018-11-06T22:19:07.125Z,56.68
2018-11-06T22:21:39.468Z,57.30
2018-11-06T22:24:10.374Z,57.51
2018-11-06T22:26:41.302Z,57.75
2018-11-06T22:29:16.472Z,58.28
2018-11-06T22:31:47.766Z,57.38
2018-11-06T22:34:18.403Z,57.62
2018-11-06T22:36:50.523Z,58.11
2018-11-06T22:39:31.015Z,57.40
2018-11-06T22:42:02.491Z,58.70
2018-11-06T22:44:49.047Z,57.63
2018-11-06T22:47:20.838Z,57.62
2018-11-06T22:49:53.431Z,57.88
2018-11-06T22:52:26.492Z,57.65
2018-11-06T22:54:56.601Z,56.82
2018-11-06T22:57:27.226Z,56.69
2018-11-06T22:59:57.825Z,57.03
2018-11-06T23:02:30.140Z,56.32
2018-11-06T23:05:00.364Z,55.61
2018-11-06T23:07:35.564Z,56.56
2018-11-06T23:10:06.093Z,57.48
2018-11-06T23:12:39.026Z,57.36
2018-11-06T23:15:33.469Z,57.82
2018-11-06T23:18:03.211Z,56.87
2018-11-06T23:20:33.578Z,57.56
2018-11-06T23:23:05.751Z,56.37
2018-11-06T23:25:36.509Z,57.83
2018-11-06T23:28:06.610Z,56.74
2018-11-06T23:30:37.809Z,55.36
2018-11-06T23:33:09.427Z,55.36
2018-11-06T23:35:38.943Z,54.95
2018-11-06T23:38:10.134Z,55.49
2018-11-06T23:40:40.445Z,55.85
2018-11-06T23:43:14.358Z,56.91
2018-11-06T23:45:44.111Z,56.96
2018-11-06T23:48:14.362Z,56.37
2018-11-06T23:50:46.483Z,55.39
2018-11-06T23:53:16.909Z,55.19
2018-11-06T23:55:47.521Z,56.00
2018-11-06T23:58:18.986Z,56.30
